Time;durP1;ratioP1;P1;durP2;ratioP2;P2;SDS_P1;SDS_P2;PMS_P1;PMS_P2;Temp;Humidity;BMP_temperature;BMP_pressure;BME280_temperature;BME280_humidity;BME280_pressure;Samples;Min_cycle;Max_cycle;Signal;HPM_P1;HPM_P2
2022/05/11 00:01:30;;;;;;;14.15;8.18;;;12.30;99.90;;;;;;5032462;28;20057;-72
2022/05/11 00:03:57;;;;;;;14.07;8.52;;;12.30;99.90;;;;;;5032603;28;20088;-74
2022/05/11 00:06:25;;;;;;;18.67;8.68;;;12.30;99.90;;;;;;5032017;28;20477;-73
2022/05/11 00:08:52;;;;;;;15.55;7.80;;;12.30;99.90;;;;;;5015172;28;20092;-73
2022/05/11 00:11:19;;;;;;;13.30;7.90;;;12.40;99.90;;;;;;5032625;28;20100;-73
2022/05/11 00:13:47;;;;;;;13.35;7.80;;;12.40;99.90;;;;;;5014074;28;20136;-74
2022/05/11 00:16:14;;;;;;;13.88;7.90;;;12.40;99.90;;;;;;5031814;28;20192;-73
2022/05/11 00:18:42;;;;;;;13.20;7.63;;;12.50;99.90;;;;;;5032159;28;20096;-73
2022/05/11 00:21:10;;;;;;;13.15;8.27;;;12.50;99.90;;;;;;5032709;28;20076;-74
2022/05/11 00:23:37;;;;;;;16.80;9.23;;;12.50;99.90;;;;;;5032744;28;20095;-73
2022/05/11 00:26:04;;;;;;;15.60;8.57;;;12.50;99.90;;;;;;5034912;28;20111;-73
2022/05/11 00:28:31;;;;;;;12.93;7.95;;;12.50;99.90;;;;;;5037312;28;20060;-75
2022/05/11 00:30:59;;;;;;;14.05;8.63;;;12.60;99.90;;;;;;5024677;28;20072;-73
2022/05/11 00:33:26;;;;;;;14.82;9.43;;;12.60;99.90;;;;;;5023891;28;20514;-73
2022/05/11 00:35:53;;;;;;;17.13;8.55;;;12.60;99.90;;;;;;5021899;28;20075;-73
2022/05/11 00:38:22;;;;;;;17.20;8.48;;;12.70;99.90;;;;;;5018181;28;20111;-72
2022/05/11 00:40:51;;;;;;;15.65;8.63;;;12.80;99.90;;;;;;5016916;28;20096;-72
2022/05/11 00:43:28;;;;;;;16.38;8.63;;;12.80;99.90;;;;;;5034417;28;20049;-72
2022/05/11 00:45:58;;;;;;;15.93;8.88;;;12.80;99.90;;;;;;5017436;28;20053;-72
2022/05/11 00:51:14;;;;;;;17.70;8.80;;;12.90;99.90;;;;;;5036070;28;20412;-74
2022/05/11 00:53:45;;;;;;;16.02;8.60;;;12.90;99.90;;;;;;5017544;28;20089;-72
2022/05/11 00:56:13;;;;;;;17.95;8.15;;;12.90;99.90;;;;;;5035774;28;20172;-74
2022/05/11 00:58:47;;;;;;;13.88;7.55;;;13.00;99.90;;;;;;5018280;28;20068;-73
2022/05/11 01:01:14;;;;;;;13.25;8.05;;;13.00;99.90;;;;;;5017017;28;20115;-74
2022/05/11 01:03:49;;;;;;;15.65;8.60;;;13.50;99.90;;;;;;5017804;28;20080;-75
2022/05/11 01:06:18;;;;;;;12.18;8.07;;;13.00;99.90;;;;;;5035364;28;20041;-74
2022/05/11 01:08:44;;;;;;;12.77;7.80;;;13.60;99.90;;;;;;5034416;28;20084;-75
2022/05/11 01:11:11;;;;;;;15.57;7.50;;;13.10;99.90;;;;;;5017895;28;20539;-73
2022/05/11 01:13:40;;;;;;;22.00;8.43;;;13.10;99.90;;;;;;5035206;28;20103;-74
2022/05/11 01:16:07;;;;;;;12.07;8.18;;;13.10;99.90;;;;;;5034202;28;20444;-74
2022/05/11 01:18:34;;;;;;;19.98;7.70;;;13.10;99.90;;;;;;5017894;28;20049;-74
2022/05/11 01:21:07;;;;;;;17.48;8.50;;;13.10;99.90;;;;;;5035364;28;20456;-74
2022/05/11 01:23:44;;;;;;;15.13;7.88;;;13.20;99.90;;;;;;5016298;28;20501;-73
2022/05/11 01:26:15;;;;;;;14.38;8.15;;;13.20;99.90;;;;;;5016289;28;20567;-74
2022/05/11 01:28:43;;;;;;;16.70;8.18;;;13.20;99.90;;;;;;5035282;28;20140;-73
2022/05/11 01:31:12;;;;;;;14.15;7.15;;;13.20;99.90;;;;;;5033883;28;20056;-74
2022/05/11 01:33:43;;;;;;;13.23;7.97;;;13.10;99.90;;;;;;5035036;28;20053;-74
2022/05/11 01:36:17;;;;;;;12.27;7.82;;;13.20;99.90;;;;;;5016802;28;20052;-73
2022/05/11 01:38:45;;;;;;;11.55;7.38;;;13.20;99.90;;;;;;5016705;28;20517;-74
2022/05/11 01:41:20;;;;;;;11.27;6.82;;;13.20;99.90;;;;;;5017382;28;20049;-74
2022/05/11 01:43:47;;;;;;;16.40;7.28;;;13.20;99.90;;;;;;5033933;28;20068;-74
2022/05/11 01:46:16;;;;;;;11.20;7.10;;;13.20;99.90;;;;;;5016669;28;20045;-74
2022/05/11 01:48:43;;;;;;;10.77;7.13;;;13.20;99.90;;;;;;5034801;28;20497;-74
2022/05/11 01:51:11;;;;;;;12.50;6.95;;;13.10;99.90;;;;;;5016437;28;20053;-73
2022/05/11 01:53:38;;;;;;;11.73;7.70;;;13.10;99.90;;;;;;5016906;28;20108;-74
2022/05/11 01:56:06;;;;;;;11.52;7.15;;;13.10;99.90;;;;;;5034511;28;20107;-73
2022/05/11 01:58:36;;;;;;;12.05;7.22;;;13.10;99.90;;;;;;5016451;28;20144;-74
2022/05/11 02:01:04;;;;;;;11.88;6.95;;;13.10;99.90;;;;;;5016621;28;20053;-75
2022/05/11 02:03:31;;;;;;;13.25;7.13;;;13.10;99.90;;;;;;5016901;28;20448;-75
2022/05/11 02:08:44;;;;;;;12.02;6.60;;;13.00;99.90;;;;;;5017027;28;20409;-75
2022/05/11 02:11:12;;;;;;;13.93;7.03;;;13.00;99.90;;;;;;5016399;28;20463;-74
2022/05/11 02:13:40;;;;;;;11.90;6.07;;;13.00;99.90;;;;;;5034066;28;20493;-74
2022/05/11 02:16:07;;;;;;;11.70;6.55;;;13.00;99.90;;;;;;5019644;28;20049;-74
2022/05/11 02:18:34;;;;;;;14.95;6.97;;;13.00;99.90;;;;;;5046980;28;20083;-75
2022/05/11 02:21:01;;;;;;;11.98;6.03;;;13.00;99.90;;;;;;5046843;28;20095;-72
2022/05/11 02:23:28;;;;;;;14.13;6.90;;;13.00;99.90;;;;;;5033975;28;20045;-74
2022/05/11 02:25:55;;;;;;;12.40;7.38;;;13.00;99.90;;;;;;5015509;28;20049;-74
2022/05/11 02:28:23;;;;;;;12.30;7.03;;;13.00;99.90;;;;;;5034149;28;20127;-75
2022/05/11 02:30:53;;;;;;;15.45;6.00;;;13.00;99.90;;;;;;5016173;28;20103;-74
2022/05/11 02:33:21;;;;;;;11.52;6.30;;;13.00;99.90;;;;;;5015380;28;20057;-75
2022/05/11 02:35:49;;;;;;;10.98;6.53;;;13.00;99.90;;;;;;5016511;28;20462;-73
2022/05/11 02:38:18;;;;;;;10.02;6.40;;;13.00;99.90;;;;;;5016158;28;20081;-74
2022/05/11 02:40:46;;;;;;;12.05;6.82;;;13.00;99.90;;;;;;5015224;28;20107;-75
2022/05/11 02:43:12;;;;;;;10.77;6.40;;;13.00;99.90;;;;;;5015979;28;20061;-72
2022/05/11 02:45:41;;;;;;;16.67;6.95;;;13.00;99.90;;;;;;5015918;28;20073;-72
2022/05/11 02:48:11;;;;;;;9.57;6.03;;;13.00;99.90;;;;;;5032860;28;20053;-73
2022/05/11 02:50:40;;;;;;;12.52;7.22;;;13.00;99.90;;;;;;5016188;28;20049;-73
2022/05/11 02:53:09;;;;;;;10.95;6.72;;;13.00;99.90;;;;;;5015375;28;20080;-72
2022/05/11 02:55:37;;;;;;;12.40;6.50;;;13.00;99.90;;;;;;5033031;28;20132;-72
2022/05/11 02:58:05;;;;;;;11.00;5.75;;;13.00;99.90;;;;;;5016231;28;20065;-73
2022/05/11 03:00:33;;;;;;;11.00;6.90;;;13.00;99.90;;;;;;5015216;28;20057;-73
2022/05/11 03:03:02;;;;;;;9.75;6.95;;;13.00;99.90;;;;;;5016134;28;20056;-73
2022/05/11 03:05:30;;;;;;;12.85;6.45;;;13.00;99.90;;;;;;5033682;28;20045;-73
2022/05/11 03:07:57;;;;;;;9.65;5.38;;;13.00;99.90;;;;;;5015450;28;20049;-73
2022/05/11 03:10:24;;;;;;;10.30;6.25;;;13.00;99.90;;;;;;5037645;28;20049;-72
2022/05/11 03:12:52;;;;;;;14.07;5.70;;;13.00;99.90;;;;;;5019089;28;20414;-74
2022/05/11 03:15:19;;;;;;;10.90;6.28;;;13.00;99.90;;;;;;5017043;28;20385;-72
2022/05/11 03:17:46;;;;;;;12.05;6.32;;;13.00;99.90;;;;;;5015594;28;20081;-72
2022/05/11 03:20:13;;;;;;;12.20;7.05;;;13.00;99.90;;;;;;5015560;28;20061;-73
2022/05/11 03:22:41;;;;;;;10.15;6.45;;;13.00;99.90;;;;;;5014096;28;20069;-74
2022/05/11 03:25:09;;;;;;;15.57;6.22;;;13.00;99.90;;;;;;5032848;28;20093;-74
2022/05/11 03:27:36;;;;;;;11.55;5.60;;;13.00;99.90;;;;;;5015249;28;20045;-74
2022/05/11 03:30:04;;;;;;;8.10;5.40;;;13.00;99.90;;;;;;5014697;28;20469;-73
2022/05/11 03:35:15;;;;;;;7.88;5.47;;;13.00;99.90;;;;;;5033349;28;20059;-74
2022/05/11 03:37:43;;;;;;;7.93;5.18;;;13.00;99.90;;;;;;5031669;28;20456;-74
2022/05/11 03:40:12;;;;;;;9.82;5.53;;;13.00;99.90;;;;;;5019495;28;20412;-72
2022/05/11 03:42:40;;;;;;;7.90;5.60;;;13.10;99.90;;;;;;5004305;28;20383;-72
2022/05/11 03:45:10;;;;;;;9.10;5.28;;;13.10;99.90;;;;;;5008482;28;20058;-74
2022/05/11 03:47:37;;;;;;;7.63;4.57;;;13.20;99.90;;;;;;5025439;28;20115;-73
2022/05/11 03:50:04;;;;;;;6.30;4.38;;;13.20;99.90;;;;;;5010360;28;20111;-74
2022/05/11 03:52:31;;;;;;;7.78;5.18;;;13.30;99.90;;;;;;5023280;28;20115;-73
2022/05/11 03:54:59;;;;;;;9.63;5.25;;;13.30;99.90;;;;;;5024129;28;20438;-74
2022/05/11 03:57:26;;;;;;;11.07;5.45;;;13.20;99.90;;;;;;5003966;28;20081;-73
2022/05/11 03:59:53;;;;;;;9.98;4.50;;;13.20;99.90;;;;;;5031724;28;20072;-74
2022/05/11 04:02:20;;;;;;;8.27;5.35;;;13.20;99.90;;;;;;5028353;28;20382;-73
2022/05/11 04:04:47;;;;;;;8.98;5.13;;;13.20;99.90;;;;;;5025629;28;20123;-74
2022/05/11 04:07:14;;;;;;;10.75;4.85;;;13.20;99.90;;;;;;5025694;28;20447;-73
2022/05/11 04:09:41;;;;;;;13.25;5.68;;;13.20;99.90;;;;;;5014901;28;20444;-73
2022/05/11 04:12:10;;;;;;;10.60;5.97;;;13.20;99.90;;;;;;5026947;28;20053;-73
2022/05/11 04:14:37;;;;;;;8.73;4.97;;;13.20;99.90;;;;;;5027991;28;20088;-73
2022/05/11 04:17:04;;;;;;;10.82;5.95;;;13.30;99.90;;;;;;5031130;28;20049;-74
2022/05/11 04:19:31;;;;;;;8.93;5.45;;;13.30;99.90;;;;;;5026161;28;20049;-73
2022/05/11 04:21:58;;;;;;;11.57;6.32;;;13.30;99.90;;;;;;5027858;28;20103;-72
2022/05/11 04:24:25;;;;;;;10.02;4.68;;;13.40;99.90;;;;;;5026164;28;20049;-73
2022/05/11 04:26:52;;;;;;;9.48;5.65;;;13.40;99.90;;;;;;5006723;28;20498;-73
2022/05/11 04:29:21;;;;;;;8.18;4.85;;;13.40;99.90;;;;;;5013740;28;20105;-73
2022/05/11 04:31:53;;;;;;;9.88;5.53;;;13.40;99.90;;;;;;4991055;28;20096;-72
2022/05/11 04:34:20;;;;;;;12.95;5.68;;;13.40;99.90;;;;;;5005914;28;20054;-73
2022/05/11 04:36:47;;;;;;;11.07;5.97;;;13.40;99.90;;;;;;4982385;28;20097;-72
2022/05/11 04:39:15;;;;;;;8.05;5.35;;;13.40;99.90;;;;;;4990568;28;20054;-73
2022/05/11 04:41:41;;;;;;;11.88;5.90;;;13.40;99.90;;;;;;5013656;28;20057;-72
2022/05/11 04:44:08;;;;;;;12.55;5.90;;;13.40;99.90;;;;;;4983795;28;20128;-72
2022/05/11 04:46:37;;;;;;;11.68;5.45;;;13.40;99.90;;;;;;4989309;28;20047;-74
2022/05/11 04:49:20;;;;;;;8.15;5.57;;;13.40;99.90;;;;;;4992736;28;20046;-73
2022/05/11 04:51:49;;;;;;;11.23;5.55;;;13.40;99.90;;;;;;4982776;28;20054;-74
2022/05/11 04:54:16;;;;;;;12.75;5.60;;;13.40;99.90;;;;;;4981371;28;20113;-73
2022/05/11 04:56:43;;;;;;;9.40;5.15;;;13.40;99.90;;;;;;5000314;28;20567;-73
2022/05/11 04:59:12;;;;;;;12.35;5.32;;;13.40;99.90;;;;;;4997766;28;20457;-73
2022/05/11 05:01:40;;;;;;;9.85;5.18;;;13.50;99.90;;;;;;4987093;28;20054;-74
2022/05/11 05:04:07;;;;;;;11.00;5.53;;;13.50;99.90;;;;;;5005903;28;20112;-74
2022/05/11 05:06:34;;;;;;;10.07;5.65;;;13.60;99.90;;;;;;4990714;28;20478;-74
2022/05/11 05:09:01;;;;;;;10.88;5.35;;;13.60;99.90;;;;;;4994408;28;20054;-72
2022/05/11 05:11:28;;;;;;;10.68;5.95;;;13.60;99.90;;;;;;4989543;28;20477;-73
2022/05/11 05:13:55;;;;;;;9.57;5.38;;;13.70;99.90;;;;;;4990333;28;20096;-72
2022/05/11 05:16:22;;;;;;;10.68;5.18;;;13.70;99.90;;;;;;5003277;28;20494;-73
2022/05/11 05:18:50;;;;;;;9.23;4.57;;;13.80;99.90;;;;;;4990786;28;20074;-73
2022/05/11 05:21:18;;;;;;;9.48;5.25;;;13.80;99.90;;;;;;5008247;28;20054;-73
2022/05/11 05:23:45;;;;;;;9.65;5.28;;;13.80;99.90;;;;;;4991239;28;20055;-74
2022/05/11 05:26:12;;;;;;;13.07;4.97;;;13.80;99.90;;;;;;5027094;28;20141;-73
2022/05/11 05:31:23;;;;;;;11.07;4.85;;;13.90;99.90;;;;;;5007348;28;20046;-73
2022/05/11 05:33:58;;;;;;;9.00;4.85;;;13.90;99.90;;;;;;5026099;28;20080;-74
2022/05/11 05:36:25;;;;;;;12.68;5.88;;;13.90;99.90;;;;;;5026385;28;20125;-73
2022/05/11 05:38:51;;;;;;;9.95;4.93;;;14.00;99.90;;;;;;5015272;28;20057;-74
2022/05/11 05:41:18;;;;;;;10.18;5.00;;;14.00;99.90;;;;;;5028196;28;20445;-74
2022/05/11 05:43:45;;;;;;;9.02;4.18;;;14.00;99.90;;;;;;5007620;28;20100;-75
2022/05/11 05:46:14;;;;;;;14.63;5.45;;;14.10;99.90;;;;;;5009374;28;20041;-73
2022/05/11 05:48:41;;;;;;;9.40;4.65;;;14.10;99.90;;;;;;5014712;28;20056;-75
2022/05/11 05:51:11;;;;;;;13.15;5.00;;;14.20;99.90;;;;;;5033202;28;20501;-73
2022/05/11 05:53:39;;;;;;;11.10;5.50;;;14.20;99.90;;;;;;5016673;28;20053;-74
2022/05/11 05:56:06;;;;;;;13.02;4.93;;;14.30;99.90;;;;;;5021403;28;20108;-74
2022/05/11 05:58:33;;;;;;;11.60;4.53;;;14.30;99.90;;;;;;5017850;28;20591;-73
2022/05/11 06:01:00;;;;;;;13.00;6.22;;;14.30;99.90;;;;;;5014000;28;20579;-74
2022/05/11 06:03:31;;;;;;;13.88;5.50;;;14.40;99.90;;;;;;5026830;28;20053;-73
2022/05/11 06:05:58;;;;;;;10.23;5.43;;;14.40;99.90;;;;;;5027544;28;20482;-74
2022/05/11 06:08:27;;;;;;;15.10;5.32;;;14.50;99.90;;;;;;5032511;28;20049;-74
2022/05/11 06:10:54;;;;;;;10.18;4.97;;;14.60;99.90;;;;;;5033724;28;20049;-74
2022/05/11 06:13:23;;;;;;;9.27;4.82;;;14.60;99.90;;;;;;5016301;28;20093;-73
2022/05/11 06:15:50;;;;;;;11.70;5.13;;;14.70;99.90;;;;;;5016911;28;20486;-74
2022/05/11 06:18:18;;;;;;;9.00;5.28;;;14.80;99.90;;;;;;5015714;28;20123;-74
2022/05/11 06:20:45;;;;;;;16.60;5.20;;;14.90;99.90;;;;;;5016383;28;20061;-75
2022/05/11 06:23:12;;;;;;;13.93;5.38;;;15.10;99.90;;;;;;5016095;28;20386;-74
2022/05/11 06:25:40;;;;;;;11.02;5.25;;;15.20;99.90;;;;;;5015542;28;20053;-74
2022/05/11 06:28:08;;;;;;;12.75;4.85;;;15.30;99.90;;;;;;5034020;28;20049;-73
2022/05/11 06:30:36;;;;;;;11.38;5.40;;;15.50;99.90;;;;;;5011109;28;20409;-74
2022/05/11 06:33:03;;;;;;;14.70;5.05;;;15.70;99.90;;;;;;5032108;28;20049;-73
2022/05/11 06:35:30;;;;;;;10.05;4.65;;;15.80;99.90;;;;;;5033453;28;20100;-74
2022/05/11 06:38:02;;;;;;;13.25;4.97;;;16.00;99.90;;;;;;5015801;28;20502;-74
2022/05/11 06:40:29;;;;;;;11.98;4.50;;;16.20;99.90;;;;;;5032806;28;20104;-73
2022/05/11 06:42:57;;;;;;;11.55;4.53;;;16.20;99.90;;;;;;5015994;28;20119;-73
2022/05/11 06:45:25;;;;;;;19.55;5.93;;;16.20;99.90;;;;;;5015330;28;20053;-73
2022/05/11 06:47:53;;;;;;;8.90;5.15;;;16.20;99.90;;;;;;5015688;28;20053;-72
2022/05/11 06:50:20;;;;;;;16.10;6.00;;;16.10;99.90;;;;;;5015775;28;20511;-74
2022/05/11 06:52:47;;;;;;;9.95;5.13;;;16.00;99.90;;;;;;5013228;28;20069;-75
2022/05/11 07:00:44;;;;;;;12.77;5.43;;;15.80;99.90;;;;;;5007455;28;20053;-75
2022/05/11 07:03:11;;;;;;;12.50;5.50;;;15.70;99.90;;;;;;5033246;28;20099;-73
2022/05/11 07:05:38;;;;;;;13.95;5.93;;;15.70;99.90;;;;;;5032722;28;20045;-74
2022/05/11 07:08:05;;;;;;;11.15;5.25;;;15.70;99.90;;;;;;5032123;28;20486;-74
2022/05/11 07:10:32;;;;;;;17.45;5.20;;;15.80;99.90;;;;;;5015756;28;20085;-73
2022/05/11 07:13:00;;;;;;;11.05;4.78;;;15.90;99.90;;;;;;5033083;28;20049;-73
2022/05/11 07:15:27;;;;;;;11.68;5.40;;;16.10;99.90;;;;;;5032102;28;20057;-73
2022/05/11 07:17:55;;;;;;;11.80;5.30;;;16.20;99.90;;;;;;5013196;28;20041;-73
2022/05/11 07:20:24;;;;;;;14.35;4.95;;;16.30;99.90;;;;;;5031519;28;20104;-74
2022/05/11 07:22:51;;;;;;;12.75;4.85;;;16.40;99.90;;;;;;5014551;28;20139;-74
2022/05/11 07:25:21;;;;;;;13.38;5.40;;;16.60;99.90;;;;;;5014928;28;20505;-74
2022/05/11 07:27:49;;;;;;;13.45;5.95;;;16.80;99.90;;;;;;5032083;28;20076;-74
2022/05/11 07:30:21;;;;;;;11.05;4.63;;;16.80;99.90;;;;;;5032730;28;20056;-74
2022/05/11 07:32:48;;;;;;;15.73;5.40;;;16.80;99.90;;;;;;5015234;28;20081;-73
2022/05/11 07:35:14;;;;;;;8.48;4.50;;;16.90;99.90;;;;;;5013599;28;20053;-74
2022/05/11 07:37:41;;;;;;;12.23;5.07;;;17.20;99.90;;;;;;5032326;28;20563;-73
2022/05/11 07:40:11;;;;;;;12.90;4.85;;;17.40;99.90;;;;;;5015279;28;20053;-74
2022/05/11 07:42:37;;;;;;;14.68;4.47;;;17.70;99.90;;;;;;5013996;28;20111;-73
2022/05/11 07:45:05;;;;;;;8.88;4.18;;;18.20;99.90;;;;;;5014585;28;20575;-75
2022/05/11 07:47:33;;;;;;;12.70;4.13;;;18.60;99.90;;;;;;5014740;28;20045;-74
2022/05/11 07:50:01;;;;;;;11.90;4.35;;;18.90;99.90;;;;;;5031619;28;20046;-74
2022/05/11 07:52:28;;;;;;;11.60;3.75;;;19.00;99.90;;;;;;5014880;28;20512;-73
2022/05/11 07:54:54;;;;;;;10.00;3.60;;;19.20;99.90;;;;;;5032967;28;20413;-74
2022/05/11 08:00:08;;;;;;;10.23;3.70;;;19.10;99.90;;;;;;5014698;28;20132;-73
2022/05/11 08:02:39;;;;;;;9.23;3.22;;;19.20;99.90;;;;;;5015075;28;20049;-74
2022/05/11 08:05:09;;;;;;;7.45;3.10;;;19.10;99.90;;;;;;5032064;28;20092;-73
2022/05/11 08:07:39;;;;;;;5.85;2.92;;;19.10;99.90;;;;;;4996273;28;20104;-74
2022/05/11 08:10:09;;;;;;;10.43;2.88;;;19.40;99.90;;;;;;4994671;28;20062;-74
2022/05/11 08:12:36;;;;;;;12.57;3.45;;;19.60;99.90;;;;;;5025327;28;20088;-73
2022/05/11 08:15:03;;;;;;;12.70;4.03;;;19.60;99.90;;;;;;5032656;28;20452;-74
2022/05/11 08:17:34;;;;;;;9.57;3.50;;;19.60;99.90;;;;;;5031106;28;20060;-73
2022/05/11 08:20:03;;;;;;;8.93;3.28;;;19.60;99.90;;;;;;5013734;28;20049;-74
2022/05/11 08:22:30;;;;;;;12.93;4.17;;;19.90;99.90;;;;;;5014811;28;20053;-73
2022/05/11 08:24:57;;;;;;;10.32;3.40;;;20.20;99.90;;;;;;5031399;28;20054;-73
2022/05/11 08:27:27;;;;;;;11.93;3.55;;;20.40;99.90;;;;;;5032440;28;20085;-74
2022/05/11 08:35:27;;;;;;;9.10;3.67;;;20.40;99.90;;;;;;5022054;28;20047;-74
2022/05/11 08:37:53;;;;;;;12.65;3.65;;;20.70;99.90;;;;;;5037881;28;20065;-73
2022/05/11 08:40:31;;;;;;;11.68;3.38;;;20.60;99.90;;;;;;5036742;28;20124;-74
2022/05/11 08:42:58;;;;;;;10.27;3.63;;;20.60;99.80;;;;;;5032171;28;20057;-75
2022/05/11 08:45:30;;;;;;;12.52;3.47;;;20.70;99.90;;;;;;5012270;28;20515;-74
2022/05/11 08:47:58;;;;;;;10.98;2.90;;;20.90;99.90;;;;;;5035609;28;20103;-74
2022/05/11 08:50:29;;;;;;;16.25;4.40;;;20.90;99.90;;;;;;5018436;28;20053;-75
2022/05/11 08:52:59;;;;;;;10.07;3.70;;;21.10;99.90;;;;;;5016908;28;20061;-75
2022/05/11 08:55:38;;;;;;;9.00;3.17;;;20.90;99.90;;;;;;5035100;28;20064;-74
2022/05/11 08:58:09;;;;;;;16.95;3.22;;;20.60;99.70;;;;;;5035441;28;20045;-74
2022/05/11 09:00:39;;;;;;;14.20;3.40;;;20.50;99.90;;;;;;5017610;28;20397;-73
2022/05/11 09:03:11;;;;;;;10.30;3.87;;;20.40;99.90;;;;;;5017930;28;20049;-73
2022/05/11 09:05:40;;;;;;;9.27;2.92;;;20.30;99.90;;;;;;5018027;28;20495;-73
2022/05/11 09:08:11;;;;;;;12.60;3.38;;;20.30;99.90;;;;;;5034595;28;20489;-73
2022/05/11 09:10:39;;;;;;;7.25;2.50;;;20.20;99.20;;;;;;5017184;28;20069;-73
2022/05/11 09:13:08;;;;;;;13.07;3.53;;;20.40;99.90;;;;;;5017006;28;20061;-74
2022/05/11 09:15:57;;;;;;;10.65;2.83;;;20.30;98.90;;;;;;5034986;28;20555;-75
2022/05/11 09:18:34;;;;;;;9.07;3.47;;;20.50;99.40;;;;;;5017392;28;20176;-73
2022/05/11 09:21:11;;;;;;;11.57;3.80;;;20.70;98.70;;;;;;5034411;28;20064;-75
2022/05/11 09:23:41;;;;;;;9.05;3.05;;;21.10;98.50;;;;;;4997978;28;20449;-73
2022/05/11 09:26:10;;;;;;;12.38;3.30;;;21.80;97.60;;;;;;4994639;28;20062;-77
2022/05/11 09:28:39;;;;;;;11.18;2.97;;;22.50;96.70;;;;;;5013385;28;20050;-74
2022/05/11 09:31:09;;;;;;;13.68;3.08;;;22.30;94.60;;;;;;5013501;28;20058;-74
2022/05/11 09:33:38;;;;;;;10.60;3.30;;;22.60;95.80;;;;;;5013811;28;20144;-74
2022/05/11 09:36:07;;;;;;;12.97;3.53;;;22.60;95.60;;;;;;5012754;28;20060;-74
2022/05/11 09:38:38;;;;;;;11.20;3.03;;;22.30;94.80;;;;;;5005430;28;20109;-74
2022/05/11 09:41:22;;;;;;;11.43;2.90;;;22.00;95.00;;;;;;4995583;28;20054;-74
2022/05/11 09:43:53;;;;;;;8.57;2.90;;;22.20;95.10;;;;;;4995414;28;20050;-74
2022/05/11 09:46:28;;;;;;;7.93;2.55;;;22.40;95.10;;;;;;5011258;28;20471;-73
2022/05/11 09:49:06;;;;;;;8.23;3.00;;;22.20;94.30;;;;;;5013960;28;20445;-74
2022/05/11 09:51:37;;;;;;;8.70;3.20;;;22.00;93.00;;;;;;5010792;28;20473;-74
2022/05/11 09:54:20;;;;;;;10.05;3.63;;;22.00;93.80;;;;;;5006128;28;20410;-73
2022/05/11 09:56:54;;;;;;;10.88;2.78;;;21.90;93.60;;;;;;5013813;28;20465;-73
2022/05/11 09:59:25;;;;;;;10.60;2.83;;;21.80;94.20;;;;;;5012755;28;20490;-73
2022/05/11 10:01:53;;;;;;;;;;;21.80;94.10;;;;;;5015448;28;20054;-73
2022/05/11 10:04:29;;;;;;;6.47;2.38;;;21.90;93.30;;;;;;5014688;28;19921;-74
2022/05/11 10:06:58;;;;;;;11.75;2.78;;;22.00;93.60;;;;;;5015211;28;20069;-73
2022/05/11 10:09:31;;;;;;;6.25;2.20;;;21.90;93.60;;;;;;5008930;28;20038;-73
2022/05/11 10:12:00;;;;;;;9.88;2.78;;;21.80;93.10;;;;;;4995772;28;20046;-73
2022/05/11 10:23:19;;;;;;;10.48;2.55;;;22.40;93.00;;;;;;4964337;29;20073;-74
2022/05/11 10:25:49;;;;;;;11.95;3.38;;;22.30;92.60;;;;;;5002488;28;20115;-75
2022/05/11 10:28:27;;;;;;;10.15;2.90;;;22.10;92.40;;;;;;5032803;28;20057;-74
2022/05/11 10:30:59;;;;;;;7.22;2.65;;;22.30;92.60;;;;;;5004314;28;20077;-73
2022/05/11 10:33:53;;;;;;;6.85;2.40;;;22.40;92.60;;;;;;5033756;28;20053;-73
2022/05/11 10:36:29;;;;;;;9.98;2.92;;;22.20;91.90;;;;;;5015562;28;20119;-74
2022/05/11 10:39:08;;;;;;;7.65;2.45;;;21.70;92.10;;;;;;5015527;28;20107;-72
2022/05/11 10:41:46;;;;;;;10.80;2.42;;;21.40;92.40;;;;;;5026341;28;20058;-72
2022/05/11 10:44:31;;;;;;;8.93;2.10;;;22.00;92.40;;;;;;5019148;28;20366;-74
2022/05/11 10:47:07;;;;;;;10.30;2.75;;;22.80;91.70;;;;;;4997409;28;20050;-73
2022/05/11 10:49:54;;;;;;;9.38;2.60;;;22.60;90.90;;;;;;5010468;28;20057;-73
2022/05/11 10:52:38;;;;;;;7.43;2.85;;;23.50;90.30;;;;;;4997117;28;20501;-73
2022/05/11 10:55:25;;;;;;;9.20;2.70;;;23.60;87.10;;;;;;5003358;28;20091;-73
2022/05/11 10:58:07;;;;;;;8.48;2.63;;;24.00;86.00;;;;;;5025151;28;20052;-73
2022/05/11 11:00:41;;;;;;;7.78;2.88;;;24.10;87.20;;;;;;4998165;28;20053;-72
2022/05/11 11:03:41;;;;;;;6.97;2.70;;;23.70;87.30;;;;;;5002389;28;20104;-72
2022/05/11 11:09:26;;;;;;;11.38;2.67;;;23.90;85.10;;;;;;5021848;28;20509;-73
2022/05/11 11:12:04;;;;;;;7.55;2.53;;;23.40;86.40;;;;;;5031582;28;20571;-73
2022/05/11 11:14:33;;;;;;;8.77;3.50;;;23.50;86.20;;;;;;5012411;28;20160;-74
2022/05/11 11:17:04;;;;;;;10.25;3.25;;;23.80;86.30;;;;;;5040994;28;20053;-73
2022/05/11 11:19:31;;;;;;;9.73;3.38;;;23.90;86.00;;;;;;5038696;28;20124;-74
2022/05/11 11:22:00;;;;;;;10.10;3.08;;;24.10;86.80;;;;;;5032439;28;20053;-73
2022/05/11 11:24:27;;;;;;;14.23;3.38;;;23.90;85.60;;;;;;5015274;28;20088;-74
2022/05/11 11:26:57;;;;;;;9.35;3.40;;;23.50;85.30;;;;;;5031445;28;20119;-74
2022/05/11 11:29:28;;;;;;;;;;;22.90;86.80;;;;;;5015456;28;20473;-74
2022/05/11 11:32:14;;;;;;;10.68;3.35;;;22.70;87.30;;;;;;5015434;28;19971;-74
2022/05/11 11:34:44;;;;;;;12.65;3.47;;;22.20;89.20;;;;;;5032229;28;20103;-73
2022/05/11 11:37:47;;;;;;;11.55;2.72;;;22.70;89.10;;;;;;5015329;28;20050;-75
2022/05/11 11:40:21;;;;;;;12.25;3.20;;;23.10;88.30;;;;;;5013368;28;20049;-75
2022/05/11 11:42:50;;;;;;;9.27;3.05;;;23.80;87.90;;;;;;5016675;28;20045;-74
2022/05/11 11:45:52;;;;;;;11.10;2.83;;;24.00;87.90;;;;;;5032747;28;20099;-74
2022/05/11 11:48:23;;;;;;;11.80;3.17;;;24.40;81.90;;;;;;5008261;28;20108;-73
2022/05/11 11:50:53;;;;;;;8.93;2.35;;;24.50;82.40;;;;;;5015398;28;20451;-74
2022/05/11 11:53:24;;;;;;;;;;;24.70;81.10;;;;;;5032985;28;20046;-73
2022/05/11 11:55:51;;;;;;;8.85;2.10;;;24.60;78.80;;;;;;5031853;28;20364;-73
2022/05/11 11:58:28;;;;;;;6.85;2.35;;;24.30;80.80;;;;;;5014810;28;20048;-74
2022/05/11 12:01:06;;;;;;;6.43;2.05;;;23.90;80.30;;;;;;5015599;28;20057;-74
2022/05/11 12:03:37;;;;;;;8.02;2.35;;;23.40;79.80;;;;;;5014183;28;20515;-73
2022/05/11 12:17:27;;;;;;;5.80;1.38;;;24.10;78.90;;;;;;5014294;28;20132;-73
2022/05/11 12:19:57;;;;;;;;;;;24.50;76.90;;;;;;5015442;28;20126;-74
2022/05/11 12:22:25;;;;;;;4.53;1.30;;;23.80;74.20;;;;;;5035123;28;19921;-74
2022/05/11 12:24:59;;;;;;;6.63;1.45;;;23.60;75.40;;;;;;5034966;28;20098;-74
2022/05/11 12:27:30;;;;;;;6.38;1.50;;;24.00;73.90;;;;;;5017750;28;20137;-75
2022/05/11 12:30:01;;;;;;;5.30;1.35;;;24.20;73.50;;;;;;5018193;28;20073;-73
2022/05/11 12:32:31;;;;;;;5.82;1.48;;;24.30;72.60;;;;;;5034824;28;20045;-74
2022/05/11 12:35:07;;;;;;;9.00;1.83;;;24.60;74.00;;;;;;5036278;28;20124;-75
2022/05/11 12:37:37;;;;;;;7.20;1.55;;;24.70;74.40;;;;;;5034835;28;20089;-74
2022/05/11 12:40:08;;;;;;;6.50;1.50;;;24.60;74.10;;;;;;5016244;28;20058;-73
2022/05/11 12:42:41;;;;;;;5.60;1.40;;;24.60;73.70;;;;;;4998621;28;20100;-74
2022/05/11 12:45:12;;;;;;;6.82;2.17;;;24.90;72.30;;;;;;4998138;28;20143;-73
2022/05/11 12:47:45;;;;;;;8.32;1.75;;;25.30;71.30;;;;;;5024555;28;20452;-75
2022/05/11 12:50:18;;;;;;;4.45;1.20;;;25.30;70.70;;;;;;5016346;28;20081;-74
2022/05/11 12:52:45;;;;;;;6.30;1.67;;;25.50;69.60;;;;;;5017488;28;20079;-74
2022/05/11 12:55:13;;;;;;;3.92;1.20;;;25.70;70.00;;;;;;5017935;28;20084;-73
2022/05/11 12:57:42;;;;;;;12.85;2.40;;;25.90;69.00;;;;;;5018225;28;20060;-75
2022/05/11 13:00:17;;;;;;;5.03;1.02;;;25.80;67.40;;;;;;5035058;28;20045;-74
2022/05/11 13:02:45;;;;;;;5.63;1.30;;;26.10;66.00;;;;;;5035523;28;20057;-75
2022/05/11 13:05:18;;;;;;;5.45;1.25;;;26.10;67.00;;;;;;5034498;28;20569;-73
2022/05/11 13:07:50;;;;;;;4.65;1.42;;;25.70;64.70;;;;;;5018034;28;20049;-75
2022/05/11 13:10:22;;;;;;;10.00;1.27;;;25.70;66.50;;;;;;5035517;28;20052;-74
2022/05/11 13:12:53;;;;;;;4.43;1.27;;;26.00;65.90;;;;;;5016933;28;20053;-74
2022/05/11 13:15:38;;;;;;;10.75;1.80;;;26.20;65.70;;;;;;5017704;28;20049;-74
2022/05/11 13:18:06;;;;;;;5.22;1.52;;;25.90;65.80;;;;;;5035200;28;20570;-75
2022/05/11 13:20:37;;;;;;;11.32;2.80;;;25.90;65.90;;;;;;5034128;28;20049;-73
2022/05/11 13:23:20;;;;;;;6.63;1.90;;;25.50;66.90;;;;;;5035046;28;20054;-74
2022/05/11 13:25:50;;;;;;;9.13;1.98;;;25.50;66.50;;;;;;5017490;28;20064;-73
2022/05/11 13:28:24;;;;;;;10.00;1.90;;;25.40;67.50;;;;;;5016843;28;20049;-74
2022/05/11 13:30:54;;;;;;;10.02;1.70;;;24.80;68.10;;;;;;5017656;28;20083;-74
2022/05/11 13:33:44;;;;;;;11.82;2.47;;;24.40;69.10;;;;;;5033178;28;20049;-74
2022/05/11 13:36:18;;;;;;;7.57;2.75;;;23.90;70.70;;;;;;5034898;28;20128;-75
2022/05/11 13:38:54;;;;;;;6.13;2.00;;;23.70;72.70;;;;;;5034931;28;20099;-76
2022/05/11 13:41:25;;;;;;;9.68;1.88;;;23.50;72.40;;;;;;5016692;28;20119;-73
2022/05/11 13:43:55;;;;;;;7.32;2.03;;;23.20;73.70;;;;;;4972107;28;20144;-74